createdAt,value
2022-07-25T00:02:07.610Z,9.73
2022-07-25T00:04:35.873Z,9.77
2022-07-25T00:07:03.191Z,9.68
2022-07-25T00:09:30.017Z,9.23
2022-07-25T00:11:56.811Z,8.90
2022-07-25T00:14:23.633Z,9.70
2022-07-25T00:16:50.759Z,12.27
2022-07-25T00:19:18.238Z,9.43
2022-07-25T00:21:45.093Z,10.63
2022-07-25T00:24:11.931Z,9.98
2022-07-25T00:26:40.542Z,10.70
2022-07-25T00:29:07.658Z,10.18
2022-07-25T00:31:34.977Z,11.48
2022-07-25T00:34:02.435Z,10.05
2022-07-25T00:36:29.364Z,10.80
2022-07-25T00:38:56.208Z,9.32
2022-07-25T00:41:23.044Z,11.07
2022-07-25T00:43:52.639Z,10.98
2022-07-25T00:46:19.643Z,10.52
2022-07-25T00:48:47.745Z,11.15
2022-07-25T00:51:16.458Z,11.52
2022-07-25T00:53:44.255Z,10.20
2022-07-25T00:56:11.448Z,10.40
2022-07-25T00:58:38.263Z,10.25
2022-07-25T01:01:05.292Z,11.27
2022-07-25T01:03:32.279Z,10.75
2022-07-25T01:05:59.274Z,10.85
2022-07-25T01:08:26.216Z,10.63
2022-07-25T01:10:53.431Z,11.90
2022-07-25T01:13:20.911Z,10.88
2022-07-25T01:15:48.168Z,11.40
2022-07-25T01:18:15.137Z,11.60
2022-07-25T01:20:42.066Z,11.13
2022-07-25T01:23:09.049Z,10.40
2022-07-25T01:25:35.937Z,10.77
2022-07-25T01:28:02.948Z,11.45
2022-07-25T01:30:29.820Z,11.23
2022-07-25T01:32:56.740Z,10.60
2022-07-25T01:35:23.714Z,11.02
2022-07-25T01:37:50.503Z,12.20
2022-07-25T01:40:17.488Z,11.48
2022-07-25T01:42:44.922Z,10.55
2022-07-25T01:45:13.105Z,10.93
2022-07-25T01:47:40.804Z,11.20
2022-07-25T01:50:08.292Z,11.07
2022-07-25T01:52:36.802Z,11.55
2022-07-25T01:55:04.167Z,12.00
2022-07-25T01:57:33.131Z,12.60
2022-07-25T02:00:00.023Z,12.43
2022-07-25T02:02:27.142Z,13.00
2022-07-25T02:04:54.340Z,12.50
2022-07-25T02:07:21.238Z,12.40
2022-07-25T02:09:49.375Z,13.13
2022-07-25T02:12:19.019Z,12.33
2022-07-25T02:14:45.862Z,10.65
2022-07-25T02:17:12.788Z,12.98
2022-07-25T02:19:39.884Z,12.70
2022-07-25T02:22:06.933Z,12.45
2022-07-25T02:24:33.784Z,12.43
2022-07-25T02:27:00.638Z,12.38
2022-07-25T02:29:27.461Z,12.23
2022-07-25T02:31:54.277Z,11.73
2022-07-25T02:34:21.169Z,11.80
2022-07-25T02:36:48.046Z,12.63
2022-07-25T02:39:14.931Z,12.27
2022-07-25T02:41:42.080Z,12.35
2022-07-25T02:44:09.262Z,12.65
2022-07-25T02:46:37.014Z,12.38
2022-07-25T02:49:03.987Z,12.00
2022-07-25T02:51:30.891Z,12.55
2022-07-25T02:53:58.890Z,12.30
2022-07-25T02:56:29.829Z,12.70
2022-07-25T02:58:57.586Z,11.48
2022-07-25T03:01:24.649Z,11.75
2022-07-25T03:03:51.694Z,12.32
2022-07-25T03:06:18.736Z,12.63
2022-07-25T03:08:45.539Z,11.57
2022-07-25T03:11:13.595Z,11.20
2022-07-25T03:13:40.454Z,10.73
2022-07-25T03:16:07.884Z,12.02
2022-07-25T03:18:34.750Z,11.65
2022-07-25T03:21:01.662Z,11.52
2022-07-25T03:23:28.617Z,10.90
2022-07-25T03:25:56.155Z,11.80
2022-07-25T03:28:24.734Z,10.43
2022-07-25T03:30:52.607Z,12.07
2022-07-25T03:33:19.457Z,12.85
2022-07-25T03:35:46.609Z,13.93
2022-07-25T03:38:13.461Z,11.20
2022-07-25T03:40:40.346Z,12.05
2022-07-25T03:43:07.269Z,12.15
2022-07-25T03:45:34.151Z,12.82
2022-07-25T03:48:01.127Z,12.20
2022-07-25T03:50:28.360Z,12.15
2022-07-25T03:52:55.207Z,11.25
2022-07-25T03:55:22.214Z,11.85
2022-07-25T03:57:49.028Z,12.57
2022-07-25T04:00:16.064Z,11.60
2022-07-25T04:02:43.048Z,12.20
2022-07-25T04:05:10.722Z,12.32
2022-07-25T04:07:38.212Z,12.02
2022-07-25T04:10:06.283Z,11.68
2022-07-25T04:12:33.439Z,11.32
2022-07-25T04:15:00.370Z,11.07
2022-07-25T04:17:27.224Z,11.38
2022-07-25T04:19:54.268Z,12.73
2022-07-25T04:22:22.515Z,11.40
2022-07-25T04:24:49.382Z,11.95
2022-07-25T04:27:16.753Z,11.25
2022-07-25T04:29:43.575Z,11.80
2022-07-25T04:32:10.474Z,12.15
2022-07-25T04:34:37.439Z,12.70
2022-07-25T04:37:04.240Z,12.75
2022-07-25T04:39:31.089Z,11.13
2022-07-25T04:41:57.908Z,11.70
2022-07-25T04:44:24.712Z,12.80
2022-07-25T04:46:51.565Z,13.10
2022-07-25T04:49:18.503Z,12.93
2022-07-25T04:51:46.187Z,11.98
2022-07-25T04:54:14.592Z,13.15
2022-07-25T04:56:41.517Z,13.43
2022-07-25T04:59:08.338Z,12.85
2022-07-25T05:01:35.548Z,11.70
2022-07-25T05:04:02.591Z,14.13
2022-07-25T05:06:29.601Z,13.95
2022-07-25T05:08:56.516Z,13.38
2022-07-25T05:11:23.350Z,12.75
2022-07-25T05:13:50.219Z,12.43
2022-07-25T05:16:17.177Z,12.02
2022-07-25T05:18:44.011Z,13.23
2022-07-25T05:21:12.465Z,12.75
2022-07-25T05:23:39.896Z,13.48
2022-07-25T05:26:06.927Z,13.40
2022-07-25T05:28:34.035Z,16.33
2022-07-25T05:31:01.125Z,15.02
2022-07-25T05:33:28.052Z,14.45
2022-07-25T05:35:54.892Z,13.60
2022-07-25T05:38:21.880Z,13.40
2022-07-25T05:40:49.256Z,13.38
2022-07-25T05:43:16.128Z,12.82
2022-07-25T05:45:43.267Z,14.70
2022-07-25T05:48:10.188Z,13.80
2022-07-25T05:50:37.555Z,13.00
2022-07-25T05:53:04.452Z,12.32
2022-07-25T05:55:31.320Z,13.45
2022-07-25T05:57:58.303Z,12.35
2022-07-25T06:00:25.470Z,12.32
2022-07-25T06:02:52.451Z,12.10
2022-07-25T06:05:19.420Z,11.88
2022-07-25T06:07:46.308Z,12.52
2022-07-25T06:10:13.142Z,12.48
2022-07-25T06:12:39.943Z,12.00
2022-07-25T06:15:07.955Z,11.85
2022-07-25T06:17:39.538Z,11.98
2022-07-25T06:20:07.539Z,11.63
2022-07-25T06:22:34.418Z,11.57
2022-07-25T06:25:04.555Z,11.40
2022-07-25T06:27:31.572Z,12.30
2022-07-25T06:29:58.495Z,11.80
2022-07-25T06:32:25.343Z,11.93
2022-07-25T06:34:52.187Z,12.15
2022-07-25T06:37:19.021Z,12.45
2022-07-25T06:39:46.287Z,12.13
2022-07-25T06:42:13.218Z,11.05
2022-07-25T06:44:40.508Z,11.85
2022-07-25T06:47:12.610Z,11.88
2022-07-25T06:49:42.992Z,12.00
2022-07-25T06:52:10.175Z,11.43
2022-07-25T06:54:37.114Z,11.65
2022-07-25T06:57:04.675Z,11.40
2022-07-25T06:59:31.686Z,12.90
2022-07-25T07:01:58.556Z,11.02
2022-07-25T07:04:25.403Z,11.75
2022-07-25T07:06:52.403Z,11.65
2022-07-25T07:09:19.242Z,10.40
2022-07-25T07:11:46.049Z,10.65
2022-07-25T07:14:12.862Z,11.57
2022-07-25T07:16:41.411Z,11.35
2022-07-25T07:19:11.061Z,11.70
2022-07-25T07:21:38.107Z,10.90
2022-07-25T07:24:05.253Z,10.30
2022-07-25T07:26:50.434Z,11.15
2022-07-25T07:29:17.267Z,11.02
2022-07-25T07:31:44.152Z,11.07
2022-07-25T07:34:11.484Z,11.15
2022-07-25T07:36:43.022Z,11.40
2022-07-25T07:39:09.958Z,9.88
2022-07-25T07:41:36.971Z,10.23
2022-07-25T07:44:05.055Z,11.30
2022-07-25T07:46:31.957Z,10.68
2022-07-25T07:48:58.931Z,10.48
2022-07-25T07:51:25.768Z,11.45
2022-07-25T07:54:11.357Z,10.85
2022-07-25T07:56:39.497Z,12.32
2022-07-25T07:59:06.512Z,11.38
2022-07-25T08:01:34.318Z,11.10
2022-07-25T08:04:01.166Z,11.13
2022-07-25T08:06:28.034Z,11.13
2022-07-25T08:08:55.265Z,10.45
2022-07-25T08:11:22.137Z,10.10
2022-07-25T08:13:48.943Z,9.93
2022-07-25T08:16:16.197Z,10.55
2022-07-25T08:18:43.092Z,10.70
2022-07-25T08:21:10.973Z,9.32
2022-07-25T08:23:40.801Z,8.82
2022-07-25T08:26:07.894Z,10.15
2022-07-25T08:28:34.694Z,10.23
2022-07-25T08:31:01.715Z,10.18
2022-07-25T08:33:29.094Z,9.88
2022-07-25T08:35:56.483Z,10.88
2022-07-25T08:38:25.401Z,9.57
2022-07-25T08:40:54.533Z,9.60
2022-07-25T08:43:22.305Z,10.38
2022-07-25T08:45:51.903Z,10.52
2022-07-25T08:48:20.831Z,10.13
2022-07-25T08:50:49.030Z,10.00
2022-07-25T08:53:35.319Z,10.27
2022-07-25T08:56:11.587Z,10.73
2022-07-25T08:58:39.862Z,10.20
2022-07-25T09:01:08.086Z,9.13
2022-07-25T09:03:36.371Z,9.35
2022-07-25T09:06:17.732Z,8.75
2022-07-25T09:08:59.544Z,8.63
2022-07-25T09:11:27.618Z,9.30
2022-07-25T09:14:07.452Z,8.95
2022-07-25T09:19:13.813Z,8.32
2022-07-25T09:21:42.877Z,8.23
2022-07-25T09:24:12.383Z,8.83
2022-07-25T09:26:48.538Z,8.27
2022-07-25T09:29:34.135Z,8.80
2022-07-25T09:32:02.592Z,8.27
2022-07-25T09:34:40.905Z,7.70
2022-07-25T09:37:09.476Z,8.00
2022-07-25T09:39:47.001Z,7.75
2022-07-25T09:42:32.248Z,7.75
2022-07-25T09:45:06.639Z,8.13
2022-07-25T09:47:36.876Z,7.75
2022-07-25T09:50:05.754Z,9.18
2022-07-25T09:52:33.818Z,7.35
2022-07-25T09:55:04.486Z,7.25
2022-07-25T09:57:31.337Z,7.03
2022-07-25T10:00:00.521Z,8.00
2022-07-25T10:02:39.668Z,7.63
2022-07-25T10:05:06.563Z,7.88
2022-07-25T10:07:38.722Z,6.95
2022-07-25T10:10:06.566Z,7.72
2022-07-25T10:12:33.679Z,6.75
2022-07-25T10:15:12.239Z,6.93
2022-07-25T10:17:40.909Z,6.95
2022-07-25T10:20:11.225Z,6.20
2022-07-25T10:22:56.302Z,7.95
2022-07-25T10:25:24.261Z,7.18
2022-07-25T10:27:59.962Z,6.60
2022-07-25T10:30:37.513Z,6.07
2022-07-25T10:33:17.761Z,5.90
2022-07-25T10:35:45.515Z,5.15
2022-07-25T10:38:12.893Z,6.10
2022-07-25T10:40:45.113Z,6.25
2022-07-25T10:43:15.237Z,6.15
2022-07-25T10:45:52.239Z,5.93
2022-07-25T10:48:30.610Z,6.10
2022-07-25T10:50:57.554Z,5.60
2022-07-25T10:53:31.716Z,6.47
2022-07-25T10:56:06.958Z,6.30
2022-07-25T10:58:43.499Z,4.90
2022-07-25T11:01:10.631Z,5.07
2022-07-25T11:03:37.528Z,5.00
2022-07-25T11:06:04.495Z,5.03
2022-07-25T11:08:35.848Z,4.50
2022-07-25T11:11:03.248Z,5.75
2022-07-25T11:13:30.257Z,5.75
2022-07-25T11:15:58.737Z,5.30
2022-07-25T11:18:37.784Z,5.32
2022-07-25T11:21:08.919Z,5.50
2022-07-25T11:23:36.472Z,6.15
2022-07-25T11:26:12.142Z,5.50
2022-07-25T11:28:44.744Z,4.07
2022-07-25T11:31:13.462Z,4.82
2022-07-25T11:33:43.570Z,4.18
2022-07-25T11:36:12.205Z,4.95
2022-07-25T11:38:40.528Z,3.80
2022-07-25T11:41:08.357Z,4.63
2022-07-25T11:43:35.256Z,3.60
2022-07-25T11:46:07.245Z,3.80
2022-07-25T11:48:37.173Z,4.22
2022-07-25T11:51:17.987Z,3.50
2022-07-25T11:53:48.250Z,4.07
2022-07-25T11:56:40.691Z,4.07
2022-07-25T11:59:04.738Z,3.95
2022-07-25T12:01:37.654Z,4.40
2022-07-25T12:04:20.227Z,4.30
2022-07-25T12:06:50.844Z,4.03
2022-07-25T12:11:48.303Z,4.70
2022-07-25T12:14:15.577Z,4.45
2022-07-25T12:16:42.859Z,4.55
2022-07-25T12:19:19.019Z,4.55
2022-07-25T12:21:46.146Z,4.50
2022-07-25T12:24:13.236Z,5.00
2022-07-25T12:26:40.098Z,4.57
2022-07-25T12:29:07.252Z,4.90
2022-07-25T12:31:34.674Z,4.82
2022-07-25T12:34:01.572Z,4.97
2022-07-25T12:36:28.578Z,5.13
2022-07-25T12:38:55.392Z,5.07
2022-07-25T12:41:23.644Z,4.72
2022-07-25T12:43:50.525Z,4.55
2022-07-25T12:46:17.581Z,4.88
2022-07-25T12:48:44.739Z,4.95
2022-07-25T12:51:11.621Z,6.47
2022-07-25T12:53:42.237Z,4.80
2022-07-25T12:56:09.738Z,5.63
2022-07-25T12:58:37.497Z,5.05
2022-07-25T13:01:05.887Z,5.00
2022-07-25T13:03:32.849Z,4.45
2022-07-25T13:05:59.758Z,5.40
2022-07-25T13:08:27.541Z,5.20
2022-07-25T13:10:54.486Z,4.82
2022-07-25T13:13:21.315Z,4.68
2022-07-25T13:15:48.135Z,5.35
2022-07-25T13:18:15.029Z,5.43
2022-07-25T13:20:41.913Z,4.70
2022-07-25T13:23:08.763Z,4.65
2022-07-25T13:25:36.505Z,4.70
2022-07-25T13:28:04.361Z,4.45
2022-07-25T13:30:38.003Z,4.80
2022-07-25T13:33:04.976Z,4.93
2022-07-25T13:35:38.552Z,3.50
2022-07-25T13:38:08.656Z,4.30
2022-07-25T13:40:37.410Z,4.68
2022-07-25T13:43:04.216Z,4.03
2022-07-25T13:45:31.439Z,4.32
2022-07-25T13:48:26.829Z,3.30
2022-07-25T13:50:45.260Z,4.15
2022-07-25T13:53:12.105Z,3.88
2022-07-25T13:55:39.386Z,4.28
2022-07-25T13:58:06.545Z,3.95
2022-07-25T14:00:33.615Z,4.20
2022-07-25T14:03:00.625Z,3.50
2022-07-25T14:05:27.666Z,3.92
2022-07-25T14:07:54.612Z,3.13
2022-07-25T14:10:21.436Z,3.72
2022-07-25T14:12:48.502Z,3.28
2022-07-25T14:15:15.381Z,3.33
2022-07-25T14:17:42.281Z,3.00
2022-07-25T14:20:09.921Z,2.67
2022-07-25T14:22:36.959Z,2.75
2022-07-25T14:25:04.165Z,3.28
2022-07-25T14:27:31.033Z,2.85
2022-07-25T14:29:57.846Z,3.35
2022-07-25T14:32:24.673Z,3.22
2022-07-25T14:34:52.643Z,3.00
2022-07-25T14:37:20.838Z,3.33
2022-07-25T14:39:48.300Z,3.40
2022-07-25T14:42:15.326Z,3.20
2022-07-25T14:44:42.186Z,4.00
2022-07-25T14:47:12.630Z,3.75
2022-07-25T14:49:41.106Z,2.95
2022-07-25T14:52:08.027Z,3.75
2022-07-25T14:54:34.946Z,3.00
2022-07-25T14:57:02.606Z,3.28
2022-07-25T14:59:29.570Z,4.07
2022-07-25T15:01:56.865Z,4.40
2022-07-25T15:04:25.256Z,4.10
2022-07-25T15:06:55.535Z,4.30
2022-07-25T15:09:22.577Z,3.78
2022-07-25T15:11:49.630Z,4.38
2022-07-25T15:14:16.511Z,4.25
2022-07-25T15:16:43.930Z,4.50
2022-07-25T15:19:16.423Z,4.35
2022-07-25T15:21:44.598Z,4.30
2022-07-25T15:24:11.833Z,4.47
2022-07-25T15:26:38.790Z,5.25
2022-07-25T15:29:10.451Z,5.03
2022-07-25T15:31:38.165Z,4.63
2022-07-25T15:34:05.112Z,5.18
2022-07-25T15:36:31.982Z,5.28
2022-07-25T15:38:58.814Z,6.22
2022-07-25T15:41:26.745Z,4.82
2022-07-25T15:43:53.772Z,5.60
2022-07-25T15:46:20.730Z,7.32
2022-07-25T15:48:48.996Z,5.90
2022-07-25T15:51:19.553Z,5.90
2022-07-25T15:53:46.551Z,7.18
2022-07-25T15:56:16.595Z,7.05
2022-07-25T15:58:44.181Z,5.63
2022-07-25T16:01:11.063Z,6.03
2022-07-25T16:03:38.395Z,5.05
2022-07-25T16:06:05.353Z,8.68
2022-07-25T16:08:32.465Z,7.63
2022-07-25T16:11:00.147Z,5.80
2022-07-25T16:13:27.225Z,6.63
2022-07-25T16:15:54.213Z,5.40
2022-07-25T16:18:21.330Z,7.88
2022-07-25T16:20:48.507Z,5.22
2022-07-25T16:23:15.636Z,5.93
2022-07-25T16:25:43.758Z,5.00
2022-07-25T16:28:10.712Z,5.45
2022-07-25T16:30:37.596Z,4.88
2022-07-25T16:33:04.510Z,5.10
2022-07-25T16:35:32.461Z,4.47
2022-07-25T16:37:59.346Z,4.53
2022-07-25T16:40:30.751Z,5.63
2022-07-25T16:42:58.845Z,5.30
2022-07-25T16:45:26.957Z,5.88
2022-07-25T16:47:54.931Z,4.53
2022-07-25T16:50:21.864Z,4.55
2022-07-25T16:52:48.770Z,4.20
2022-07-25T16:55:15.682Z,4.50
2022-07-25T16:57:42.624Z,4.68
2022-07-25T17:00:10.028Z,5.10
2022-07-25T17:02:36.950Z,4.80
2022-07-25T17:05:04.539Z,4.57
2022-07-25T17:09:59.291Z,4.57
2022-07-25T17:12:26.336Z,4.55
2022-07-25T17:14:53.911Z,4.82
2022-07-25T17:17:20.764Z,5.28
2022-07-25T17:19:47.706Z,5.03
2022-07-25T17:22:14.853Z,4.90
2022-07-25T17:24:42.041Z,4.93
2022-07-25T17:27:09.416Z,4.65
2022-07-25T17:29:36.824Z,4.93
2022-07-25T17:32:06.026Z,5.15
2022-07-25T17:34:33.118Z,4.88
2022-07-25T17:37:03.274Z,5.20
2022-07-25T17:39:30.854Z,5.00
2022-07-25T17:41:57.699Z,5.10
2022-07-25T17:44:25.145Z,5.47
2022-07-25T17:46:53.666Z,5.10
2022-07-25T17:49:21.769Z,5.25
2022-07-25T17:51:48.749Z,5.43
2022-07-25T17:54:15.753Z,5.07
2022-07-25T17:56:42.607Z,4.50
2022-07-25T17:59:09.411Z,5.40
2022-07-25T18:01:36.296Z,5.20
2022-07-25T18:04:03.920Z,6.05
2022-07-25T18:06:30.987Z,5.15
2022-07-25T18:08:58.183Z,5.22
2022-07-25T18:11:25.080Z,5.45
2022-07-25T18:13:51.880Z,5.13
2022-07-25T18:16:18.838Z,6.15
2022-07-25T18:18:45.740Z,5.38
2022-07-25T18:21:12.588Z,5.82
2022-07-25T18:23:39.421Z,5.25
2022-07-25T18:26:06.356Z,5.30
2022-07-25T18:28:33.199Z,5.03
2022-07-25T18:31:00.203Z,5.57
2022-07-25T18:33:27.136Z,6.32
2022-07-25T18:35:54.028Z,5.10
2022-07-25T18:38:20.841Z,5.28
2022-07-25T18:40:49.443Z,5.70
2022-07-25T18:43:16.408Z,5.53
2022-07-25T18:45:43.403Z,5.30
2022-07-25T18:48:11.583Z,5.80
2022-07-25T18:50:38.404Z,5.47
2022-07-25T18:53:05.429Z,5.82
2022-07-25T18:55:32.448Z,4.88
2022-07-25T18:57:59.291Z,5.28
2022-07-25T19:00:26.214Z,5.78
2022-07-25T19:02:53.005Z,6.35
2022-07-25T19:05:20.292Z,4.68
2022-07-25T19:07:47.264Z,5.85
2022-07-25T19:10:14.436Z,5.82
2022-07-25T19:12:41.428Z,5.03
2022-07-25T19:15:08.720Z,5.85
2022-07-25T19:17:37.105Z,5.55
2022-07-25T19:20:05.085Z,5.65
2022-07-25T19:22:31.959Z,4.90
2022-07-25T19:25:01.120Z,4.90
2022-07-25T19:27:28.891Z,5.25
2022-07-25T19:29:56.109Z,5.70
2022-07-25T19:32:23.082Z,5.82
2022-07-25T19:34:49.983Z,4.75
2022-07-25T19:37:16.933Z,6.30
2022-07-25T19:39:43.904Z,5.60
2022-07-25T19:42:12.327Z,5.65
2022-07-25T19:44:39.163Z,5.60
2022-07-25T19:47:09.860Z,5.72
2022-07-25T19:49:39.674Z,5.50
2022-07-25T19:52:07.657Z,5.80
2022-07-25T19:54:34.599Z,5.15
2022-07-25T19:57:02.314Z,5.35
2022-07-25T19:59:29.128Z,5.45
2022-07-25T20:01:55.975Z,5.35
2022-07-25T20:04:23.249Z,6.05
2022-07-25T20:06:50.779Z,5.82
2022-07-25T20:09:18.281Z,6.05
2022-07-25T20:11:45.437Z,6.05
2022-07-25T20:14:12.373Z,6.13
2022-07-25T20:16:40.004Z,5.55
2022-07-25T20:19:09.599Z,5.93
2022-07-25T20:21:38.249Z,5.82
2022-07-25T20:24:05.368Z,5.88
2022-07-25T20:26:32.294Z,6.82
2022-07-25T20:28:59.134Z,6.05
2022-07-25T20:31:26.132Z,6.18
2022-07-25T20:33:53.299Z,7.05
2022-07-25T20:36:20.437Z,6.95
2022-07-25T20:38:47.432Z,6.18
2022-07-25T20:41:15.370Z,7.10
2022-07-25T20:43:42.398Z,6.70
2022-07-25T20:46:09.601Z,6.90
2022-07-25T20:48:36.755Z,7.53
2022-07-25T20:51:03.971Z,8.35
2022-07-25T20:53:30.966Z,10.10
2022-07-25T20:55:58.455Z,10.13
2022-07-25T20:58:25.330Z,9.55
2022-07-25T21:00:52.337Z,9.60
2022-07-25T21:03:19.282Z,8.85
2022-07-25T21:05:46.277Z,9.32
2022-07-25T21:08:13.109Z,8.85
2022-07-25T21:10:39.923Z,10.98
2022-07-25T21:13:07.117Z,9.80
2022-07-25T21:15:34.821Z,10.43
2022-07-25T21:18:01.660Z,10.20
2022-07-25T21:20:28.681Z,9.73
2022-07-25T21:22:55.559Z,11.15
2022-07-25T21:25:22.632Z,10.98
2022-07-25T21:27:52.797Z,9.80
2022-07-25T21:30:19.731Z,9.90
2022-07-25T21:32:46.619Z,9.63
2022-07-25T21:35:13.470Z,9.25
2022-07-25T21:37:40.476Z,9.57
2022-07-25T21:40:08.132Z,9.25
2022-07-25T21:42:36.335Z,9.13
2022-07-25T21:45:03.550Z,10.05
2022-07-25T21:47:30.473Z,8.93
2022-07-25T21:50:24.150Z,9.00
2022-07-25T21:52:51.903Z,8.70
2022-07-25T21:55:18.795Z,8.65
2022-07-25T21:57:45.581Z,8.43
2022-07-25T22:00:13.371Z,8.80
2022-07-25T22:02:42.352Z,8.00
2022-07-25T22:05:10.005Z,7.82
2022-07-25T22:07:36.945Z,8.85
2022-07-25T22:10:07.633Z,8.55
2022-07-25T22:12:34.456Z,8.93
2022-07-25T22:15:01.329Z,9.20
2022-07-25T22:17:28.166Z,8.65
2022-07-25T22:20:15.021Z,8.10
2022-07-25T22:22:41.940Z,9.13
2022-07-25T22:25:09.320Z,8.40
2022-07-25T22:27:36.199Z,8.50
2022-07-25T22:30:04.050Z,8.23
2022-07-25T22:32:30.911Z,7.47
2022-07-25T22:34:57.749Z,8.50
2022-07-25T22:37:24.560Z,8.63
2022-07-25T22:39:51.918Z,8.32
2022-07-25T22:42:23.403Z,8.25
2022-07-25T22:44:50.229Z,9.38
2022-07-25T22:47:17.017Z,7.78
2022-07-25T22:49:43.799Z,8.68
2022-07-25T22:52:10.610Z,7.00
2022-07-25T22:54:37.562Z,7.88
2022-07-25T22:57:04.552Z,8.02
2022-07-25T22:59:31.421Z,8.13
2022-07-25T23:01:58.214Z,8.43
2022-07-25T23:04:25.068Z,8.40
2022-07-25T23:09:36.486Z,7.32
2022-07-25T23:12:05.307Z,8.27
2022-07-25T23:14:32.157Z,7.65
2022-07-25T23:17:17.021Z,8.35
2022-07-25T23:19:55.005Z,8.13
2022-07-25T23:22:23.763Z,7.95
2022-07-25T23:24:50.595Z,8.00
2022-07-25T23:27:17.786Z,8.75
2022-07-25T23:29:44.867Z,8.43
2022-07-25T23:32:11.802Z,8.52
2022-07-25T23:34:38.957Z,7.97
2022-07-25T23:37:05.846Z,8.30
2022-07-25T23:39:33.474Z,8.15
2022-07-25T23:42:00.788Z,8.25
2022-07-25T23:44:27.661Z,8.48
2022-07-25T23:46:56.741Z,9.23
2022-07-25T23:49:24.243Z,8.55
2022-07-25T23:51:51.162Z,8.88
2022-07-25T23:54:18.070Z,7.80
2022-07-25T23:56:44.870Z,8.40
2022-07-25T23:59:11.821Z,8.00
